sensor_id;sensor_type;location;lat;lon;timestamp;P1;durP1;ratioP1;P2;durP2;ratioP2
76459;SDS011;65299;46.084;18.762;2023-02-15T00:02:54;30.67;;;12.37;;
76459;SDS011;65299;46.084;18.762;2023-02-15T00:05:56;36.33;;;12.37;;
76459;SDS011;65299;46.084;18.762;2023-02-15T00:08:58;31.48;;;11.80;;
76459;SDS011;65299;46.084;18.762;2023-02-15T00:11:58;38.72;;;13.38;;
76459;SDS011;65299;46.084;18.762;2023-02-15T00:14:59;31.27;;;12.03;;
76459;SDS011;65299;46.084;18.762;2023-02-15T00:17:59;32.37;;;12.30;;
76459;SDS011;65299;46.084;18.762;2023-02-15T00:21:03;34.40;;;12.63;;
76459;SDS011;65299;46.084;18.762;2023-02-15T00:24:06;38.28;;;13.38;;
76459;SDS011;65299;46.084;18.762;2023-02-15T00:27:08;35.05;;;12.52;;
76459;SDS011;65299;46.084;18.762;2023-02-15T00:30:09;31.00;;;11.73;;
76459;SDS011;65299;46.084;18.762;2023-02-15T00:33:10;33.38;;;12.20;;
76459;SDS011;65299;46.084;18.762;2023-02-15T00:36:10;37.40;;;12.63;;
76459;SDS011;65299;46.084;18.762;2023-02-15T00:39:11;30.73;;;12.38;;
76459;SDS011;65299;46.084;18.762;2023-02-15T00:42:12;42.35;;;12.90;;
76459;SDS011;65299;46.084;18.762;2023-02-15T00:45:12;29.70;;;11.50;;
76459;SDS011;65299;46.084;18.762;2023-02-15T00:48:13;32.03;;;11.50;;
76459;SDS011;65299;46.084;18.762;2023-02-15T00:51:13;31.50;;;11.47;;
76459;SDS011;65299;46.084;18.762;2023-02-15T00:54:14;31.40;;;11.98;;
76459;SDS011;65299;46.084;18.762;2023-02-15T00:57:14;35.87;;;12.57;;
76459;SDS011;65299;46.084;18.762;2023-02-15T01:00:15;28.50;;;11.17;;
76459;SDS011;65299;46.084;18.762;2023-02-15T01:03:16;29.80;;;10.17;;
76459;SDS011;65299;46.084;18.762;2023-02-15T01:06:17;30.52;;;10.68;;
76459;SDS011;65299;46.084;18.762;2023-02-15T01:09:18;32.58;;;11.73;;
76459;SDS011;65299;46.084;18.762;2023-02-15T01:12:18;29.97;;;11.07;;
76459;SDS011;65299;46.084;18.762;2023-02-15T01:15:18;34.20;;;11.27;;
76459;SDS011;65299;46.084;18.762;2023-02-15T01:18:19;33.07;;;11.23;;
76459;SDS011;65299;46.084;18.762;2023-02-15T01:21:20;34.45;;;11.93;;
76459;SDS011;65299;46.084;18.762;2023-02-15T01:24:22;34.15;;;11.52;;
76459;SDS011;65299;46.084;18.762;2023-02-15T01:27:22;31.47;;;10.67;;
76459;SDS011;65299;46.084;18.762;2023-02-15T01:30:23;35.97;;;10.83;;
76459;SDS011;65299;46.084;18.762;2023-02-15T01:33:23;30.80;;;11.00;;
76459;SDS011;65299;46.084;18.762;2023-02-15T01:36:23;32.20;;;10.77;;
76459;SDS011;65299;46.084;18.762;2023-02-15T01:39:24;31.17;;;10.27;;
76459;SDS011;65299;46.084;18.762;2023-02-15T01:42:24;30.00;;;11.23;;
76459;SDS011;65299;46.084;18.762;2023-02-15T01:45:26;27.85;;;10.00;;
76459;SDS011;65299;46.084;18.762;2023-02-15T01:48:29;32.67;;;11.07;;
76459;SDS011;65299;46.084;18.762;2023-02-15T01:51:30;33.73;;;12.10;;
76459;SDS011;65299;46.084;18.762;2023-02-15T01:54:34;34.25;;;12.27;;
76459;SDS011;65299;46.084;18.762;2023-02-15T01:57:38;32.97;;;11.60;;
76459;SDS011;65299;46.084;18.762;2023-02-15T02:00:39;33.08;;;11.98;;
76459;SDS011;65299;46.084;18.762;2023-02-15T02:03:47;36.55;;;12.20;;
76459;SDS011;65299;46.084;18.762;2023-02-15T02:07:05;34.60;;;10.35;;
76459;SDS011;65299;46.084;18.762;2023-02-15T02:10:07;28.90;;;10.32;;
76459;SDS011;65299;46.084;18.762;2023-02-15T02:13:09;33.20;;;11.60;;
76459;SDS011;65299;46.084;18.762;2023-02-15T02:16:15;35.60;;;12.10;;
76459;SDS011;65299;46.084;18.762;2023-02-15T02:39:23;30.90;;;10.70;;
76459;SDS011;65299;46.084;18.762;2023-02-15T02:42:43;30.63;;;11.10;;
76459;SDS011;65299;46.084;18.762;2023-02-15T02:48:52;33.58;;;11.20;;
76459;SDS011;65299;46.084;18.762;2023-02-15T02:52:00;31.33;;;11.20;;
76459;SDS011;65299;46.084;18.762;2023-02-15T02:58:43;25.83;;;9.65;;
76459;SDS011;65299;46.084;18.762;2023-02-15T03:02:34;28.92;;;10.05;;
76459;SDS011;65299;46.084;18.762;2023-02-15T03:05:14;32.53;;;11.88;;
76459;SDS011;65299;46.084;18.762;2023-02-15T03:08:19;27.57;;;9.93;;
76459;SDS011;65299;46.084;18.762;2023-02-15T03:11:27;37.10;;;11.10;;
76459;SDS011;65299;46.084;18.762;2023-02-15T03:14:28;33.83;;;10.80;;
76459;SDS011;65299;46.084;18.762;2023-02-15T03:17:31;33.45;;;11.35;;
76459;SDS011;65299;46.084;18.762;2023-02-15T03:20:34;32.92;;;11.65;;
76459;SDS011;65299;46.084;18.762;2023-02-15T03:23:37;30.83;;;10.60;;
76459;SDS011;65299;46.084;18.762;2023-02-15T03:26:39;38.33;;;11.15;;
76459;SDS011;65299;46.084;18.762;2023-02-15T03:29:44;36.75;;;11.13;;
76459;SDS011;65299;46.084;18.762;2023-02-15T03:32:49;34.95;;;11.48;;
76459;SDS011;65299;46.084;18.762;2023-02-15T03:36:11;32.85;;;9.73;;
76459;SDS011;65299;46.084;18.762;2023-02-15T03:39:32;34.47;;;11.63;;
76459;SDS011;65299;46.084;18.762;2023-02-15T03:42:38;32.83;;;11.77;;
76459;SDS011;65299;46.084;18.762;2023-02-15T03:45:39;35.50;;;11.93;;
76459;SDS011;65299;46.084;18.762;2023-02-15T03:48:55;36.22;;;12.23;;
76459;SDS011;65299;46.084;18.762;2023-02-15T03:51:58;38.85;;;12.68;;
76459;SDS011;65299;46.084;18.762;2023-02-15T03:55:02;36.30;;;13.00;;
76459;SDS011;65299;46.084;18.762;2023-02-15T03:58:03;36.50;;;11.77;;
76459;SDS011;65299;46.084;18.762;2023-02-15T04:04:57;29.23;;;10.73;;
76459;SDS011;65299;46.084;18.762;2023-02-15T04:07:57;33.73;;;11.63;;
76459;SDS011;65299;46.084;18.762;2023-02-15T04:10:57;30.37;;;10.53;;
76459;SDS011;65299;46.084;18.762;2023-02-15T04:13:58;36.83;;;11.53;;
76459;SDS011;65299;46.084;18.762;2023-02-15T04:16:58;31.33;;;11.20;;
76459;SDS011;65299;46.084;18.762;2023-02-15T04:19:58;34.60;;;11.03;;
76459;SDS011;65299;46.084;18.762;2023-02-15T04:23:17;38.42;;;12.52;;
76459;SDS011;65299;46.084;18.762;2023-02-15T04:26:36;26.33;;;8.97;;
76459;SDS011;65299;46.084;18.762;2023-02-15T04:29:37;31.27;;;11.35;;
76459;SDS011;65299;46.084;18.762;2023-02-15T04:32:37;34.17;;;11.13;;
76459;SDS011;65299;46.084;18.762;2023-02-15T04:35:38;36.77;;;11.80;;
76459;SDS011;65299;46.084;18.762;2023-02-15T04:38:38;31.92;;;12.48;;
76459;SDS011;65299;46.084;18.762;2023-02-15T04:41:39;34.53;;;12.37;;
76459;SDS011;65299;46.084;18.762;2023-02-15T04:44:39;39.30;;;15.60;;
76459;SDS011;65299;46.084;18.762;2023-02-15T04:47:40;40.67;;;16.25;;
76459;SDS011;65299;46.084;18.762;2023-02-15T04:50:41;42.53;;;15.07;;
76459;SDS011;65299;46.084;18.762;2023-02-15T04:53:41;50.28;;;16.60;;
76459;SDS011;65299;46.084;18.762;2023-02-15T04:56:42;45.50;;;14.67;;
76459;SDS011;65299;46.084;18.762;2023-02-15T04:59:43;34.33;;;12.65;;
76459;SDS011;65299;46.084;18.762;2023-02-15T05:02:43;31.60;;;10.77;;
76459;SDS011;65299;46.084;18.762;2023-02-15T05:05:43;33.10;;;12.13;;
76459;SDS011;65299;46.084;18.762;2023-02-15T05:08:44;43.53;;;14.33;;
76459;SDS011;65299;46.084;18.762;2023-02-15T05:11:44;33.60;;;13.43;;
76459;SDS011;65299;46.084;18.762;2023-02-15T05:14:44;29.92;;;11.13;;
76459;SDS011;65299;46.084;18.762;2023-02-15T05:17:45;40.10;;;12.83;;
76459;SDS011;65299;46.084;18.762;2023-02-15T05:20:45;29.30;;;11.43;;
76459;SDS011;65299;46.084;18.762;2023-02-15T05:23:46;36.97;;;13.32;;
76459;SDS011;65299;46.084;18.762;2023-02-15T05:26:46;34.20;;;12.67;;
76459;SDS011;65299;46.084;18.762;2023-02-15T05:30:05;39.10;;;13.38;;
76459;SDS011;65299;46.084;18.762;2023-02-15T05:33:11;43.22;;;14.20;;
76459;SDS011;65299;46.084;18.762;2023-02-15T05:36:11;46.47;;;16.83;;
76459;SDS011;65299;46.084;18.762;2023-02-15T05:39:12;40.95;;;14.55;;
76459;SDS011;65299;46.084;18.762;2023-02-15T05:42:13;39.73;;;15.00;;
76459;SDS011;65299;46.084;18.762;2023-02-15T05:45:13;39.27;;;14.37;;
76459;SDS011;65299;46.084;18.762;2023-02-15T05:48:14;33.87;;;13.27;;
76459;SDS011;65299;46.084;18.762;2023-02-15T05:51:15;32.22;;;12.52;;
76459;SDS011;65299;46.084;18.762;2023-02-15T05:54:16;34.90;;;12.30;;
76459;SDS011;65299;46.084;18.762;2023-02-15T05:57:17;36.20;;;12.20;;
76459;SDS011;65299;46.084;18.762;2023-02-15T06:00:17;30.98;;;10.75;;
76459;SDS011;65299;46.084;18.762;2023-02-15T06:03:18;27.77;;;10.73;;
76459;SDS011;65299;46.084;18.762;2023-02-15T06:06:19;31.33;;;10.98;;
76459;SDS011;65299;46.084;18.762;2023-02-15T06:09:19;36.70;;;11.23;;
76459;SDS011;65299;46.084;18.762;2023-02-15T06:12:20;39.93;;;13.10;;
76459;SDS011;65299;46.084;18.762;2023-02-15T06:15:20;33.43;;;11.90;;
76459;SDS011;65299;46.084;18.762;2023-02-15T06:18:20;36.20;;;14.33;;
76459;SDS011;65299;46.084;18.762;2023-02-15T06:21:21;34.97;;;12.40;;
76459;SDS011;65299;46.084;18.762;2023-02-15T06:24:21;36.33;;;12.77;;
76459;SDS011;65299;46.084;18.762;2023-02-15T06:27:22;38.87;;;13.60;;
76459;SDS011;65299;46.084;18.762;2023-02-15T06:30:22;34.77;;;12.47;;
76459;SDS011;65299;46.084;18.762;2023-02-15T06:33:23;33.57;;;11.90;;
76459;SDS011;65299;46.084;18.762;2023-02-15T06:36:23;34.97;;;11.43;;
76459;SDS011;65299;46.084;18.762;2023-02-15T06:39:23;29.92;;;10.52;;
76459;SDS011;65299;46.084;18.762;2023-02-15T06:42:24;37.50;;;11.73;;
76459;SDS011;65299;46.084;18.762;2023-02-15T06:45:25;35.15;;;11.88;;
76459;SDS011;65299;46.084;18.762;2023-02-15T06:48:25;43.07;;;16.30;;
76459;SDS011;65299;46.084;18.762;2023-02-15T06:51:26;38.73;;;14.57;;
76459;SDS011;65299;46.084;18.762;2023-02-15T06:54:26;39.60;;;13.68;;
76459;SDS011;65299;46.084;18.762;2023-02-15T06:57:27;35.70;;;15.63;;
76459;SDS011;65299;46.084;18.762;2023-02-15T07:00:27;54.33;;;20.57;;
76459;SDS011;65299;46.084;18.762;2023-02-15T07:03:28;57.30;;;22.08;;
76459;SDS011;65299;46.084;18.762;2023-02-15T07:06:35;59.63;;;22.60;;
76459;SDS011;65299;46.084;18.762;2023-02-15T07:09:36;49.85;;;18.33;;
76459;SDS011;65299;46.084;18.762;2023-02-15T07:12:37;43.70;;;17.77;;
76459;SDS011;65299;46.084;18.762;2023-02-15T07:15:42;51.70;;;18.95;;
76459;SDS011;65299;46.084;18.762;2023-02-15T07:18:44;54.33;;;20.90;;
76459;SDS011;65299;46.084;18.762;2023-02-15T07:21:45;75.45;;;26.50;;
76459;SDS011;65299;46.084;18.762;2023-02-15T07:24:46;76.13;;;26.50;;
76459;SDS011;65299;46.084;18.762;2023-02-15T07:27:47;102.60;;;32.70;;
76459;SDS011;65299;46.084;18.762;2023-02-15T07:30:48;117.15;;;39.30;;
76459;SDS011;65299;46.084;18.762;2023-02-15T07:33:49;93.47;;;32.67;;
76459;SDS011;65299;46.084;18.762;2023-02-15T07:36:53;93.87;;;34.97;;
76459;SDS011;65299;46.084;18.762;2023-02-15T07:39:54;83.78;;;29.52;;
76459;SDS011;65299;46.084;18.762;2023-02-15T07:42:57;60.77;;;24.40;;
76459;SDS011;65299;46.084;18.762;2023-02-15T07:45:59;58.58;;;23.25;;
76459;SDS011;65299;46.084;18.762;2023-02-15T07:49:00;61.80;;;21.67;;
76459;SDS011;65299;46.084;18.762;2023-02-15T07:52:01;49.40;;;20.60;;
76459;SDS011;65299;46.084;18.762;2023-02-15T07:55:03;52.83;;;20.08;;
76459;SDS011;65299;46.084;18.762;2023-02-15T07:58:05;50.80;;;19.13;;
76459;SDS011;65299;46.084;18.762;2023-02-15T08:01:05;57.63;;;21.10;;
76459;SDS011;65299;46.084;18.762;2023-02-15T08:04:06;42.57;;;17.67;;
76459;SDS011;65299;46.084;18.762;2023-02-15T08:07:07;45.70;;;17.65;;
76459;SDS011;65299;46.084;18.762;2023-02-15T08:10:08;41.78;;;16.88;;
76459;SDS011;65299;46.084;18.762;2023-02-15T08:13:09;41.20;;;16.07;;
76459;SDS011;65299;46.084;18.762;2023-02-15T08:16:09;37.13;;;14.20;;
76459;SDS011;65299;46.084;18.762;2023-02-15T08:22:19;42.25;;;17.10;;
76459;SDS011;65299;46.084;18.762;2023-02-15T08:25:19;44.63;;;18.50;;
76459;SDS011;65299;46.084;18.762;2023-02-15T08:28:20;46.63;;;17.33;;
76459;SDS011;65299;46.084;18.762;2023-02-15T08:31:20;44.53;;;19.03;;
76459;SDS011;65299;46.084;18.762;2023-02-15T08:34:20;46.80;;;17.83;;
76459;SDS011;65299;46.084;18.762;2023-02-15T08:37:21;42.53;;;18.23;;
76459;SDS011;65299;46.084;18.762;2023-02-15T08:40:21;59.57;;;23.60;;
76459;SDS011;65299;46.084;18.762;2023-02-15T08:43:22;44.47;;;19.50;;
76459;SDS011;65299;46.084;18.762;2023-02-15T08:46:23;46.17;;;19.07;;
76459;SDS011;65299;46.084;18.762;2023-02-15T08:49:25;49.60;;;21.00;;
76459;SDS011;65299;46.084;18.762;2023-02-15T08:52:25;50.80;;;19.93;;
76459;SDS011;65299;46.084;18.762;2023-02-15T08:55:26;45.13;;;18.80;;
76459;SDS011;65299;46.084;18.762;2023-02-15T08:58:27;43.53;;;18.60;;
76459;SDS011;65299;46.084;18.762;2023-02-15T09:01:29;45.50;;;18.20;;
76459;SDS011;65299;46.084;18.762;2023-02-15T09:04:31;43.17;;;17.80;;
76459;SDS011;65299;46.084;18.762;2023-02-15T09:07:31;42.17;;;17.52;;
76459;SDS011;65299;46.084;18.762;2023-02-15T09:10:32;43.63;;;17.73;;
76459;SDS011;65299;46.084;18.762;2023-02-15T09:13:32;43.03;;;17.83;;
76459;SDS011;65299;46.084;18.762;2023-02-15T09:16:34;50.45;;;20.33;;
76459;SDS011;65299;46.084;18.762;2023-02-15T09:19:36;56.80;;;23.02;;
76459;SDS011;65299;46.084;18.762;2023-02-15T09:22:36;50.50;;;21.00;;
76459;SDS011;65299;46.084;18.762;2023-02-15T09:25:38;69.97;;;26.25;;
76459;SDS011;65299;46.084;18.762;2023-02-15T09:28:38;47.47;;;19.03;;
76459;SDS011;65299;46.084;18.762;2023-02-15T09:31:46;42.60;;;19.07;;
76459;SDS011;65299;46.084;18.762;2023-02-15T09:34:48;39.33;;;16.77;;
76459;SDS011;65299;46.084;18.762;2023-02-15T09:37:49;37.60;;;16.17;;
76459;SDS011;65299;46.084;18.762;2023-02-15T09:40:51;30.35;;;13.40;;
76459;SDS011;65299;46.084;18.762;2023-02-15T09:51:10;38.25;;;16.25;;
76459;SDS011;65299;46.084;18.762;2023-02-15T10:04:59;24.63;;;9.60;;
76459;SDS011;65299;46.084;18.762;2023-02-15T10:15:09;25.08;;;9.93;;
76459;SDS011;65299;46.084;18.762;2023-02-15T10:28:50;25.08;;;9.35;;
76459;SDS011;65299;46.084;18.762;2023-02-15T10:31:58;26.02;;;9.30;;
76459;SDS011;65299;46.084;18.762;2023-02-15T10:42:07;25.00;;;10.45;;
76459;SDS011;65299;46.084;18.762;2023-02-15T10:49:04;25.55;;;10.52;;
76459;SDS011;65299;46.084;18.762;2023-02-15T10:58:59;24.45;;;10.20;;
76459;SDS011;65299;46.084;18.762;2023-02-15T11:09:09;26.93;;;10.63;;
76459;SDS011;65299;46.084;18.762;2023-02-15T11:12:14;27.40;;;10.73;;
76459;SDS011;65299;46.084;18.762;2023-02-15T11:19:11;21.77;;;9.60;;
76459;SDS011;65299;46.084;18.762;2023-02-15T11:22:17;27.95;;;11.13;;
76459;SDS011;65299;46.084;18.762;2023-02-15T11:25:18;26.30;;;10.67;;
76459;SDS011;65299;46.084;18.762;2023-02-15T11:28:43;28.05;;;10.85;;
76459;SDS011;65299;46.084;18.762;2023-02-15T11:31:55;25.00;;;11.02;;
76459;SDS011;65299;46.084;18.762;2023-02-15T11:35:04;22.40;;;9.97;;
76459;SDS011;65299;46.084;18.762;2023-02-15T11:38:12;28.38;;;11.55;;
76459;SDS011;65299;46.084;18.762;2023-02-15T11:41:18;26.40;;;10.75;;
76459;SDS011;65299;46.084;18.762;2023-02-15T11:44:27;28.58;;;10.80;;
76459;SDS011;65299;46.084;18.762;2023-02-15T11:47:32;32.35;;;11.15;;
76459;SDS011;65299;46.084;18.762;2023-02-15T11:50:33;29.60;;;10.87;;
76459;SDS011;65299;46.084;18.762;2023-02-15T11:53:36;25.23;;;10.17;;
76459;SDS011;65299;46.084;18.762;2023-02-15T11:56:38;23.80;;;9.55;;
76459;SDS011;65299;46.084;18.762;2023-02-15T11:59:39;24.23;;;8.60;;
76459;SDS011;65299;46.084;18.762;2023-02-15T12:02:45;29.52;;;11.18;;
76459;SDS011;65299;46.084;18.762;2023-02-15T12:05:52;29.52;;;11.02;;
76459;SDS011;65299;46.084;18.762;2023-02-15T12:08:59;26.02;;;10.30;;
76459;SDS011;65299;46.084;18.762;2023-02-15T12:15:29;22.73;;;9.67;;
76459;SDS011;65299;46.084;18.762;2023-02-15T12:18:41;26.40;;;10.30;;
76459;SDS011;65299;46.084;18.762;2023-02-15T12:21:44;20.70;;;8.95;;
76459;SDS011;65299;46.084;18.762;2023-02-15T12:24:52;21.70;;;9.10;;
76459;SDS011;65299;46.084;18.762;2023-02-15T12:27:55;27.02;;;10.93;;
76459;SDS011;65299;46.084;18.762;2023-02-15T12:30:55;25.90;;;9.93;;
76459;SDS011;65299;46.084;18.762;2023-02-15T12:33:57;25.52;;;10.40;;
76459;SDS011;65299;46.084;18.762;2023-02-15T12:37:08;28.77;;;10.80;;
76459;SDS011;65299;46.084;18.762;2023-02-15T12:40:18;23.90;;;9.80;;
76459;SDS011;65299;46.084;18.762;2023-02-15T12:43:25;27.20;;;10.90;;
76459;SDS011;65299;46.084;18.762;2023-02-15T12:46:27;23.70;;;8.95;;
76459;SDS011;65299;46.084;18.762;2023-02-15T12:49:29;26.37;;;10.37;;
76459;SDS011;65299;46.084;18.762;2023-02-15T12:52:31;26.50;;;10.95;;
76459;SDS011;65299;46.084;18.762;2023-02-15T12:55:31;28.63;;;11.13;;
76459;SDS011;65299;46.084;18.762;2023-02-15T12:58:33;29.10;;;11.10;;
76459;SDS011;65299;46.084;18.762;2023-02-15T13:01:37;24.65;;;10.15;;
76459;SDS011;65299;46.084;18.762;2023-02-15T13:04:38;27.70;;;11.38;;
76459;SDS011;65299;46.084;18.762;2023-02-15T13:08:10;21.75;;;9.80;;
76459;SDS011;65299;46.084;18.762;2023-02-15T13:11:10;29.83;;;12.03;;
76459;SDS011;65299;46.084;18.762;2023-02-15T13:14:16;28.55;;;12.13;;
76459;SDS011;65299;46.084;18.762;2023-02-15T13:17:32;32.78;;;10.60;;
76459;SDS011;65299;46.084;18.762;2023-02-15T13:20:34;27.75;;;11.25;;
76459;SDS011;65299;46.084;18.762;2023-02-15T13:23:36;27.38;;;11.82;;
76459;SDS011;65299;46.084;18.762;2023-02-15T13:26:39;30.17;;;12.13;;
76459;SDS011;65299;46.084;18.762;2023-02-15T13:29:46;29.23;;;11.43;;
76459;SDS011;65299;46.084;18.762;2023-02-15T13:32:52;28.63;;;11.77;;
76459;SDS011;65299;46.084;18.762;2023-02-15T13:36:00;28.30;;;11.57;;
76459;SDS011;65299;46.084;18.762;2023-02-15T13:42:40;26.13;;;10.80;;
76459;SDS011;65299;46.084;18.762;2023-02-15T13:45:58;27.52;;;11.15;;
76459;SDS011;65299;46.084;18.762;2023-02-15T13:52:23;28.23;;;12.13;;
76459;SDS011;65299;46.084;18.762;2023-02-15T13:55:31;31.35;;;12.65;;
76459;SDS011;65299;46.084;18.762;2023-02-15T14:05:05;26.90;;;11.80;;
76459;SDS011;65299;46.084;18.762;2023-02-15T14:08:35;28.35;;;13.05;;
76459;SDS011;65299;46.084;18.762;2023-02-15T14:12:12;31.48;;;12.30;;
76459;SDS011;65299;46.084;18.762;2023-02-15T14:15:44;29.40;;;11.00;;
76459;SDS011;65299;46.084;18.762;2023-02-15T14:19:04;27.20;;;11.65;;
76459;SDS011;65299;46.084;18.762;2023-02-15T14:25:27;26.70;;;12.60;;
76459;SDS011;65299;46.084;18.762;2023-02-15T14:28:37;39.05;;;12.27;;
76459;SDS011;65299;46.084;18.762;2023-02-15T14:32:01;31.30;;;12.57;;
76459;SDS011;65299;46.084;18.762;2023-02-15T14:35:24;25.55;;;11.60;;
76459;SDS011;65299;46.084;18.762;2023-02-15T14:41:42;27.00;;;12.45;;
76459;SDS011;65299;46.084;18.762;2023-02-15T14:44:51;25.65;;;10.82;;
76459;SDS011;65299;46.084;18.762;2023-02-15T14:48:02;27.67;;;11.40;;
76459;SDS011;65299;46.084;18.762;2023-02-15T14:51:12;30.15;;;12.63;;
76459;SDS011;65299;46.084;18.762;2023-02-15T14:57:40;26.90;;;14.63;;
76459;SDS011;65299;46.084;18.762;2023-02-15T15:01:03;28.85;;;11.93;;
76459;SDS011;65299;46.084;18.762;2023-02-15T15:04:12;30.05;;;12.27;;
76459;SDS011;65299;46.084;18.762;2023-02-15T15:07:41;30.05;;;13.35;;
76459;SDS011;65299;46.084;18.762;2023-02-15T15:10:45;37.45;;;12.43;;
76459;SDS011;65299;46.084;18.762;2023-02-15T15:13:53;27.00;;;11.50;;
76459;SDS011;65299;46.084;18.762;2023-02-15T15:16:56;29.20;;;13.32;;
76459;SDS011;65299;46.084;18.762;2023-02-15T15:20:01;29.17;;;13.65;;
76459;SDS011;65299;46.084;18.762;2023-02-15T15:23:45;28.02;;;13.75;;
76459;SDS011;65299;46.084;18.762;2023-02-15T15:26:38;29.38;;;14.45;;
76459;SDS011;65299;46.084;18.762;2023-02-15T15:29:46;30.47;;;14.23;;
76459;SDS011;65299;46.084;18.762;2023-02-15T15:36:11;32.63;;;13.73;;
76459;SDS011;65299;46.084;18.762;2023-02-15T15:49:51;34.60;;;15.77;;
76459;SDS011;65299;46.084;18.762;2023-02-15T15:52:57;37.50;;;15.87;;
76459;SDS011;65299;46.084;18.762;2023-02-15T15:56:03;38.85;;;16.38;;
76459;SDS011;65299;46.084;18.762;2023-02-15T15:59:07;35.17;;;16.27;;
76459;SDS011;65299;46.084;18.762;2023-02-15T16:02:17;34.55;;;15.73;;
76459;SDS011;65299;46.084;18.762;2023-02-15T16:05:17;37.60;;;16.23;;
76459;SDS011;65299;46.084;18.762;2023-02-15T16:08:34;32.47;;;14.70;;
76459;SDS011;65299;46.084;18.762;2023-02-15T16:11:37;33.80;;;15.45;;
76459;SDS011;65299;46.084;18.762;2023-02-15T16:14:41;37.92;;;16.40;;
76459;SDS011;65299;46.084;18.762;2023-02-15T16:17:44;40.55;;;15.15;;
76459;SDS011;65299;46.084;18.762;2023-02-15T16:27:15;45.03;;;18.08;;
76459;SDS011;65299;46.084;18.762;2023-02-15T16:33:36;65.00;;;21.88;;
76459;SDS011;65299;46.084;18.762;2023-02-15T16:36:38;73.57;;;23.95;;
76459;SDS011;65299;46.084;18.762;2023-02-15T16:39:40;70.07;;;25.73;;
76459;SDS011;65299;46.084;18.762;2023-02-15T16:42:42;58.47;;;23.38;;
76459;SDS011;65299;46.084;18.762;2023-02-15T16:45:43;52.87;;;21.97;;
76459;SDS011;65299;46.084;18.762;2023-02-15T16:48:45;55.88;;;20.20;;
76459;SDS011;65299;46.084;18.762;2023-02-15T16:51:58;52.42;;;21.23;;
76459;SDS011;65299;46.084;18.762;2023-02-15T16:55:04;59.80;;;23.23;;
76459;SDS011;65299;46.084;18.762;2023-02-15T16:58:06;74.75;;;31.02;;
76459;SDS011;65299;46.084;18.762;2023-02-15T17:01:13;69.32;;;27.80;;
76459;SDS011;65299;46.084;18.762;2023-02-15T17:04:26;66.60;;;29.25;;
76459;SDS011;65299;46.084;18.762;2023-02-15T17:07:29;125.22;;;44.85;;
76459;SDS011;65299;46.084;18.762;2023-02-15T17:10:30;155.47;;;54.93;;
76459;SDS011;65299;46.084;18.762;2023-02-15T17:13:35;121.65;;;48.05;;
76459;SDS011;65299;46.084;18.762;2023-02-15T17:16:45;96.70;;;41.80;;
76459;SDS011;65299;46.084;18.762;2023-02-15T17:19:53;79.68;;;35.42;;
76459;SDS011;65299;46.084;18.762;2023-02-15T17:22:55;68.35;;;31.25;;
76459;SDS011;65299;46.084;18.762;2023-02-15T17:25:56;74.10;;;32.33;;
76459;SDS011;65299;46.084;18.762;2023-02-15T17:28:59;85.55;;;39.20;;
76459;SDS011;65299;46.084;18.762;2023-02-15T17:32:22;82.22;;;38.65;;
76459;SDS011;65299;46.084;18.762;2023-02-15T17:35:31;66.63;;;34.47;;
76459;SDS011;65299;46.084;18.762;2023-02-15T17:38:32;67.57;;;32.20;;
76459;SDS011;65299;46.084;18.762;2023-02-15T17:41:33;73.72;;;34.85;;
76459;SDS011;65299;46.084;18.762;2023-02-15T17:44:37;84.10;;;37.72;;
76459;SDS011;65299;46.084;18.762;2023-02-15T17:47:37;83.10;;;36.77;;
76459;SDS011;65299;46.084;18.762;2023-02-15T17:50:37;72.43;;;32.43;;
76459;SDS011;65299;46.084;18.762;2023-02-15T17:53:38;75.93;;;32.15;;
76459;SDS011;65299;46.084;18.762;2023-02-15T17:56:39;79.50;;;35.17;;
76459;SDS011;65299;46.084;18.762;2023-02-15T17:59:39;84.60;;;36.93;;
76459;SDS011;65299;46.084;18.762;2023-02-15T18:02:59;100.87;;;43.37;;
76459;SDS011;65299;46.084;18.762;2023-02-15T18:06:17;98.28;;;43.40;;
76459;SDS011;65299;46.084;18.762;2023-02-15T18:09:36;93.78;;;40.05;;
76459;SDS011;65299;46.084;18.762;2023-02-15T18:12:55;73.07;;;34.90;;
76459;SDS011;65299;46.084;18.762;2023-02-15T18:15:56;81.77;;;34.93;;
76459;SDS011;65299;46.084;18.762;2023-02-15T18:18:56;78.93;;;32.83;;
76459;SDS011;65299;46.084;18.762;2023-02-15T18:21:57;81.45;;;32.50;;
76459;SDS011;65299;46.084;18.762;2023-02-15T18:24:57;85.40;;;36.90;;
76459;SDS011;65299;46.084;18.762;2023-02-15T18:27:58;87.35;;;35.67;;
76459;SDS011;65299;46.084;18.762;2023-02-15T18:30:59;85.83;;;37.47;;
76459;SDS011;65299;46.084;18.762;2023-02-15T18:33:59;76.35;;;32.88;;
76459;SDS011;65299;46.084;18.762;2023-02-15T18:37:02;73.97;;;32.07;;
76459;SDS011;65299;46.084;18.762;2023-02-15T18:40:05;73.40;;;31.98;;
76459;SDS011;65299;46.084;18.762;2023-02-15T18:43:13;80.70;;;30.70;;
76459;SDS011;65299;46.084;18.762;2023-02-15T18:46:14;57.70;;;25.13;;
76459;SDS011;65299;46.084;18.762;2023-02-15T18:49:15;71.05;;;31.30;;
76459;SDS011;65299;46.084;18.762;2023-02-15T18:52:16;73.20;;;31.57;;
76459;SDS011;65299;46.084;18.762;2023-02-15T18:55:23;74.95;;;33.15;;
76459;SDS011;65299;46.084;18.762;2023-02-15T18:58:25;63.88;;;29.15;;
76459;SDS011;65299;46.084;18.762;2023-02-15T19:01:27;66.50;;;27.20;;
76459;SDS011;65299;46.084;18.762;2023-02-15T19:04:27;60.40;;;25.03;;
76459;SDS011;65299;46.084;18.762;2023-02-15T19:07:27;54.50;;;24.50;;
76459;SDS011;65299;46.084;18.762;2023-02-15T19:10:31;54.25;;;26.25;;
76459;SDS011;65299;46.084;18.762;2023-02-15T19:13:32;62.17;;;26.10;;
76459;SDS011;65299;46.084;18.762;2023-02-15T19:16:33;63.73;;;26.37;;
76459;SDS011;65299;46.084;18.762;2023-02-15T19:19:34;60.80;;;27.23;;
76459;SDS011;65299;46.084;18.762;2023-02-15T19:22:35;56.87;;;25.70;;
76459;SDS011;65299;46.084;18.762;2023-02-15T19:25:35;56.40;;;22.90;;
76459;SDS011;65299;46.084;18.762;2023-02-15T19:28:38;62.42;;;26.08;;
76459;SDS011;65299;46.084;18.762;2023-02-15T19:31:38;64.57;;;26.70;;
76459;SDS011;65299;46.084;18.762;2023-02-15T19:34:39;61.63;;;26.20;;
76459;SDS011;65299;46.084;18.762;2023-02-15T19:37:39;44.53;;;19.33;;
76459;SDS011;65299;46.084;18.762;2023-02-15T19:40:42;41.17;;;16.13;;
76459;SDS011;65299;46.084;18.762;2023-02-15T19:43:45;39.47;;;15.17;;
76459;SDS011;65299;46.084;18.762;2023-02-15T19:46:52;34.67;;;14.77;;
76459;SDS011;65299;46.084;18.762;2023-02-15T19:49:52;37.83;;;16.50;;
76459;SDS011;65299;46.084;18.762;2023-02-15T19:52:58;43.00;;;17.95;;
76459;SDS011;65299;46.084;18.762;2023-02-15T19:55:58;44.40;;;17.70;;
76459;SDS011;65299;46.084;18.762;2023-02-15T19:58:59;44.60;;;19.37;;
76459;SDS011;65299;46.084;18.762;2023-02-15T20:01:59;50.13;;;19.87;;
76459;SDS011;65299;46.084;18.762;2023-02-15T20:05:00;49.88;;;20.17;;
76459;SDS011;65299;46.084;18.762;2023-02-15T20:08:00;53.23;;;21.70;;
76459;SDS011;65299;46.084;18.762;2023-02-15T20:11:04;56.13;;;22.27;;